»·PEaware :: LXJ1015 KSMF-KTEX

LXJ1015 :: KSMF-KTEX

FLIGHT INFORMATION

Flight Status: Arrived
Operator: Unknown
More flights by this operator :: More flights under this callsign
Pilot: Ryan D. (24752)
Aircraft: BOMBARDIER BD-700 GLOBAL EXPRESS
(GLEX)
More flights by this aircraft type
Origin: KSMF Sacramento Intl
United States
Destination: KTEX Telluride Regl
United States
More flights between these airports :: More routes between these airports
Route: RVRCT4 RALEY JSICA MLF DVC
File this flight plan on PilotEdge
Remarks:
Altitude:
(Current/Filed)
45,000ft
Speed:
(Current/Filed)
350kts
Departed: 29-Oct-23 03:17 PM
Arrived: 29-Oct-23 04:41 PM
Distance/Time
Traveled:
645nm/1:24
Distance/Time
To Go:
Arrived

Flight Plot

Page will automatically refresh every two minutes.

Flight plan parsing failed; only flown route is shown


Map Options




Map Legend


Flown Route
Filed Route
Departure Airport
Arrival Airport
Navaid (VOR, NDB)
Fix

Horizontal Profiles

Position Reports

Time Latitude Longitude Heading Altitude Ground
Speed
29-Oct-23 15:00 38.680792 -121.596897 1 23ft 0kts
29-Oct-23 15:01 38.680792 -121.596897 1 23ft 0kts
29-Oct-23 15:02 38.680792 -121.596897 1 23ft 0kts
29-Oct-23 15:03 38.680792 -121.596897 1 23ft 0kts
29-Oct-23 15:04 38.680792 -121.596897 1 23ft 0kts
29-Oct-23 15:05 38.680792 -121.596897 1 23ft 0kts
29-Oct-23 15:06 38.680792 -121.596897 1 23ft 0kts
29-Oct-23 15:07 38.680792 -121.596897 1 23ft 0kts
29-Oct-23 15:08 38.680792 -121.596897 1 23ft 0kts
29-Oct-23 15:09 38.680792 -121.596897 1 41ft 0kts
29-Oct-23 15:10 38.680792 -121.596897 1 41ft 0kts
29-Oct-23 15:11 38.680792 -121.596897 1 41ft 0kts
29-Oct-23 15:12 38.680861 -121.596896 0 23ft 4kts
29-Oct-23 15:13 38.683807 -121.598989 308 28ft 7kts
29-Oct-23 15:14 38.683857 -121.600187 271 25ft 0kts
29-Oct-23 15:15 38.683857 -121.600187 271 25ft 0kts
29-Oct-23 15:16 38.686628 -121.601454 1 31ft 73kts
29-Oct-23 15:17 38.739788 -121.589136 42 3784ft 252kts
29-Oct-23 15:18 38.725292 -121.500939 116 11314ft 285kts
29-Oct-23 15:19 38.706576 -121.397184 93 16933ft 318kts
29-Oct-23 15:20 38.695150 -121.277913 92 19186ft 342kts
29-Oct-23 15:21 38.685370 -121.156643 92 20657ft 345kts
29-Oct-23 15:22 38.675008 -121.027577 91 24587ft 381kts
29-Oct-23 15:23 38.663637 -120.888303 92 28120ft 405kts
29-Oct-23 15:24 38.651419 -120.740839 92 31301ft 428kts
29-Oct-23 15:25 38.646022 -120.585759 88 33840ft 447kts
29-Oct-23 15:26 38.642397 -120.423266 88 35808ft 466kts
29-Oct-23 15:27 38.638426 -120.254154 88 37479ft 483kts
29-Oct-23 15:28 38.634099 -120.080507 88 38858ft 496kts
29-Oct-23 15:29 38.629374 -119.902128 89 39785ft 507kts
29-Oct-23 15:30 38.624307 -119.720678 89 40589ft 516kts
29-Oct-23 15:31 38.618879 -119.537720 90 41903ft 509kts
29-Oct-23 15:32 38.613213 -119.354756 91 42516ft 518kts
29-Oct-23 15:33 38.607168 -119.169684 91 43593ft 511kts
29-Oct-23 15:34 38.601023 -118.990105 92 44705ft 510kts
29-Oct-23 15:35 38.594514 -118.808163 92 45261ft 516kts
29-Oct-23 15:36 38.587636 -118.623686 92 45427ft 520kts
29-Oct-23 15:37 38.580475 -118.439753 92 45398ft 518kts
29-Oct-23 15:38 38.573027 -118.255675 92 45349ft 519kts
29-Oct-23 15:39 38.563684 -118.071207 93 45340ft 522kts
29-Oct-23 15:40 38.554021 -117.886261 93 45353ft 523kts
29-Oct-23 15:41 38.544026 -117.701134 93 45353ft 523kts
29-Oct-23 15:42 38.533689 -117.515494 94 45354ft 524kts
29-Oct-23 15:43 38.523038 -117.329890 94 45351ft 524kts
29-Oct-23 15:44 38.517768 -117.144038 91 45353ft 523kts
29-Oct-23 15:45 38.513770 -116.958108 91 45364ft 526kts
29-Oct-23 15:46 38.509488 -116.771448 91 45376ft 526kts
29-Oct-23 15:47 38.504918 -116.584764 91 45378ft 527kts
29-Oct-23 15:48 38.500068 -116.398225 91 45376ft 527kts
29-Oct-23 15:49 38.494879 -116.210357 91 45379ft 528kts
29-Oct-23 15:50 38.489391 -116.022797 91 45386ft 528kts
29-Oct-23 15:51 38.483638 -115.835871 92 45379ft 528kts
29-Oct-23 15:52 38.477551 -115.648219 92 45374ft 531kts
29-Oct-23 15:53 38.471135 -115.459617 92 45366ft 530kts
29-Oct-23 15:54 38.464426 -115.271641 92 45348ft 530kts
29-Oct-23 15:55 38.457431 -115.083594 92 45349ft 533kts
29-Oct-23 15:56 38.450120 -114.895242 92 45375ft 531kts
29-Oct-23 15:57 38.442478 -114.706408 93 45399ft 533kts
29-Oct-23 15:58 38.434527 -114.517402 93 45434ft 535kts
29-Oct-23 15:59 38.426265 -114.328174 93 45457ft 533kts
29-Oct-23 16:00 38.417718 -114.139486 93 45473ft 534kts
29-Oct-23 16:01 38.408813 -113.949645 93 45478ft 537kts
29-Oct-23 16:02 38.399641 -113.760612 93 45473ft 534kts
29-Oct-23 16:03 38.390138 -113.571284 94 45470ft 538kts
29-Oct-23 16:04 38.380295 -113.381331 94 45472ft 537kts
29-Oct-23 16:05 38.370146 -113.191197 94 45468ft 539kts
29-Oct-23 16:06 38.359002 -113.000315 98 45463ft 540kts
29-Oct-23 16:07 38.336641 -112.811192 99 45460ft 540kts
29-Oct-23 16:08 38.314013 -112.622346 99 45445ft 540kts
29-Oct-23 16:09 38.291077 -112.433181 100 45430ft 541kts
29-Oct-23 16:10 38.267840 -112.244084 100 45410ft 542kts
29-Oct-23 16:11 38.244180 -112.054280 100 45388ft 542kts
29-Oct-23 16:12 38.220309 -111.865163 100 45373ft 543kts
29-Oct-23 16:13 38.196055 -111.675665 100 45365ft 544kts
29-Oct-23 16:14 38.171480 -111.486084 101 45343ft 543kts
29-Oct-23 16:15 38.146637 -111.296877 101 45339ft 546kts
29-Oct-23 16:16 38.121341 -111.106728 101 45337ft 546kts
29-Oct-23 16:17 38.095828 -110.917400 101 45323ft 544kts
29-Oct-23 16:18 38.069968 -110.727885 102 45307ft 545kts
29-Oct-23 16:19 38.043846 -110.538645 102 44973ft 538kts
29-Oct-23 16:20 38.018164 -110.355024 102 41998ft 518kts
29-Oct-23 16:21 37.993389 -110.178836 102 39522ft 497kts
29-Oct-23 16:22 37.969174 -110.010194 101 36426ft 483kts
29-Oct-23 16:23 37.943900 -109.835543 99 30771ft 495kts
29-Oct-23 16:24 37.919463 -109.668365 100 30329ft 488kts
29-Oct-23 16:25 37.894519 -109.499386 100 30319ft 489kts
29-Oct-23 16:26 37.869210 -109.329776 100 30307ft 491kts
29-Oct-23 16:27 37.843599 -109.159875 101 29521ft 490kts
29-Oct-23 16:28 37.818623 -108.995833 100 27031ft 463kts
29-Oct-23 16:29 37.794622 -108.839685 99 24666ft 442kts
29-Oct-23 16:30 37.776209 -108.689074 79 24266ft 431kts
29-Oct-23 16:31 37.836668 -108.571526 25 23528ft 391kts
29-Oct-23 16:32 37.926333 -108.500850 33 19582ft 367kts
29-Oct-23 16:33 37.990285 -108.404843 63 17649ft 365kts
29-Oct-23 16:34 38.027254 -108.287808 75 15503ft 349kts
29-Oct-23 16:35 38.012663 -108.168895 109 13621ft 342kts
29-Oct-23 16:36 37.984863 -108.056001 102 12909ft 337kts
29-Oct-23 16:37 37.960608 -107.947532 103 10908ft 292kts
29-Oct-23 16:38 37.941012 -107.958066 345 11181ft 228kts
29-Oct-23 16:39 37.954085 -107.910018 106 9022ft 91kts
29-Oct-23 16:40 37.953281 -107.901179 340 9054ft 3kts
29-Oct-23 16:41 37.953364 -107.901259 307 9053ft 0kts
29-Oct-23 16:42 37.953698 -107.902770 290 9052ft 12kts
29-Oct-23 16:43 37.954456 -107.902588 104 9052ft 0kts
29-Oct-23 16:44 37.954456 -107.902588 104 9052ft 0kts

Navigation Log

Ident Type
Flight plan parsing failed, navigation log unavailable